createdAt,value
2023-01-09T00:02:24.982Z,96498.91
2023-01-09T00:05:27.821Z,96492.19
2023-01-09T00:08:30.459Z,96498.03
2023-01-09T00:11:33.671Z,96494.13
2023-01-09T00:14:37.662Z,96493.81
2023-01-09T00:17:40.574Z,96495.13
2023-01-09T00:20:43.279Z,96493.53
2023-01-09T00:23:46.123Z,96495.53
2023-01-09T00:26:48.846Z,96496.81
2023-01-09T00:29:52.864Z,96495.69
2023-01-09T00:32:56.380Z,96489.09
2023-01-09T00:35:59.138Z,96488.91
2023-01-09T00:39:01.952Z,96491.88
2023-01-09T00:42:06.059Z,96485.16
2023-01-09T00:45:14.355Z,96483.28
2023-01-09T00:48:24.997Z,96487.03
2023-01-09T00:51:27.927Z,96488.31
2023-01-09T00:54:31.825Z,96490.19
2023-01-09T00:57:34.529Z,96484.09
2023-01-09T01:00:38.944Z,96483.31
2023-01-09T01:03:41.888Z,96495.47
2023-01-09T01:07:01.966Z,96490.00
2023-01-09T01:10:05.082Z,96483.38
2023-01-09T01:13:08.303Z,96476.31
2023-01-09T01:16:14.211Z,96479.00
2023-01-09T01:19:16.871Z,96477.91
2023-01-09T01:22:19.716Z,96471.47
2023-01-09T01:25:23.016Z,96463.31
2023-01-09T01:28:25.796Z,96461.91
2023-01-09T01:31:29.811Z,96460.47
2023-01-09T01:34:32.534Z,96455.53
2023-01-09T01:37:35.599Z,96464.03
2023-01-09T01:40:40.265Z,96463.38
2023-01-09T01:43:50.715Z,96461.03
2023-01-09T01:46:57.040Z,96467.75
2023-01-09T01:50:00.692Z,96469.94
2023-01-09T01:53:10.508Z,96464.00
2023-01-09T01:56:17.993Z,96468.88
2023-01-09T01:59:25.173Z,96472.03
2023-01-09T02:02:32.124Z,96474.53
2023-01-09T02:05:36.058Z,96484.28
2023-01-09T02:08:38.878Z,96472.78
2023-01-09T02:11:45.502Z,96472.31
2023-01-09T02:14:49.588Z,96477.38
2023-01-09T02:18:16.555Z,96479.25
2023-01-09T02:21:27.966Z,96462.72
2023-01-09T02:24:51.859Z,96456.75
2023-01-09T02:28:18.155Z,96447.31
2023-01-09T02:31:29.459Z,96442.56
2023-01-09T02:34:40.675Z,96438.91
2023-01-09T02:37:51.053Z,96467.41
2023-01-09T02:40:59.270Z,96463.69
2023-01-09T02:44:28.093Z,96451.59
2023-01-09T02:47:41.331Z,96462.47
2023-01-09T02:50:51.945Z,96466.44
2023-01-09T02:54:21.967Z,96464.41
2023-01-09T02:57:41.871Z,96467.75
2023-01-09T03:00:57.293Z,96479.84
2023-01-09T03:04:10.491Z,96485.16
2023-01-09T03:07:22.218Z,96482.00
2023-01-09T03:10:33.198Z,96490.50
2023-01-09T03:13:42.807Z,96501.66
2023-01-09T03:16:49.374Z,96498.31
2023-01-09T03:19:55.376Z,96484.34
2023-01-09T03:23:00.294Z,96490.78
2023-01-09T03:26:02.987Z,96504.53
2023-01-09T03:29:05.855Z,96502.13
2023-01-09T03:32:08.532Z,96513.75
2023-01-09T03:35:12.578Z,96522.88
2023-01-09T03:38:18.061Z,96530.41
2023-01-09T03:41:21.254Z,96550.59
2023-01-09T03:44:24.084Z,96553.06
2023-01-09T03:47:26.804Z,96574.78
2023-01-09T03:50:30.920Z,96588.94
2023-01-09T03:53:33.640Z,96598.75
2023-01-09T03:56:36.334Z,96601.97
2023-01-09T03:59:39.289Z,96629.19
2023-01-09T04:02:42.481Z,96638.09
2023-01-09T04:05:47.834Z,96649.59
2023-01-09T04:08:50.537Z,96660.00
2023-01-09T04:11:53.215Z,96676.75
2023-01-09T04:14:55.959Z,96696.16
2023-01-09T04:17:58.657Z,96699.19
2023-01-09T04:21:02.711Z,96710.72
2023-01-09T04:24:06.290Z,96710.09
2023-01-09T04:27:08.935Z,96704.97
2023-01-09T04:30:12.926Z,96711.59
2023-01-09T04:33:15.606Z,96727.91
2023-01-09T04:36:19.813Z,96742.75
2023-01-09T04:39:23.017Z,96740.38
2023-01-09T04:42:25.770Z,96744.91
2023-01-09T04:45:28.519Z,96737.19
2023-01-09T04:48:31.187Z,96742.41
2023-01-09T04:51:35.316Z,96738.66
2023-01-09T04:54:39.480Z,96743.00
2023-01-09T04:57:42.157Z,96754.25
2023-01-09T05:00:44.883Z,96756.25
2023-01-09T05:03:47.697Z,96754.31
2023-01-09T05:06:51.878Z,96761.66
2023-01-09T05:09:54.486Z,96750.19
2023-01-09T05:12:57.124Z,96766.41
2023-01-09T05:15:59.790Z,96766.19
2023-01-09T05:19:02.561Z,96790.81
2023-01-09T05:22:06.671Z,96799.63
2023-01-09T05:25:10.011Z,96801.53
2023-01-09T05:28:12.669Z,96800.81
2023-01-09T05:31:15.334Z,96800.94
2023-01-09T05:34:18.036Z,96822.44
2023-01-09T05:37:22.279Z,96838.38
2023-01-09T05:40:32.088Z,96843.22
2023-01-09T05:43:35.339Z,96846.38
2023-01-09T05:46:38.031Z,96856.31
2023-01-09T05:49:40.708Z,96857.47
2023-01-09T05:52:44.676Z,96856.75
2023-01-09T05:55:47.403Z,96859.13
2023-01-09T05:58:50.043Z,96873.22
2023-01-09T06:01:54.268Z,96874.69
2023-01-09T06:04:57.008Z,96873.72
2023-01-09T06:08:01.053Z,96878.19
2023-01-09T06:11:03.682Z,96871.88
2023-01-09T06:14:06.774Z,96866.53
2023-01-09T06:17:10.557Z,96878.25
2023-01-09T06:20:13.638Z,96878.88
2023-01-09T06:23:17.674Z,96879.97
2023-01-09T06:26:20.397Z,96892.91
2023-01-09T06:29:22.986Z,96892.09
2023-01-09T06:32:25.914Z,96901.91
2023-01-09T06:35:28.960Z,96900.88
2023-01-09T06:38:33.403Z,96906.53
2023-01-09T06:41:37.368Z,96909.78
2023-01-09T06:44:41.415Z,96909.34
2023-01-09T06:47:44.163Z,96918.00
2023-01-09T06:50:48.785Z,96918.97
2023-01-09T06:53:52.749Z,96921.09
2023-01-09T06:56:55.388Z,96929.91
2023-01-09T06:59:58.057Z,96927.78
2023-01-09T07:03:01.129Z,96927.97
2023-01-09T07:06:04.404Z,96930.13
2023-01-09T07:09:08.401Z,96919.50
2023-01-09T07:12:11.084Z,96921.53
2023-01-09T07:15:14.039Z,96918.88
2023-01-09T07:18:16.778Z,96920.47
2023-01-09T07:21:19.405Z,96924.56
2023-01-09T07:24:23.383Z,96924.03
2023-01-09T07:27:26.043Z,96934.13
2023-01-09T07:30:29.195Z,96937.75
2023-01-09T07:33:32.296Z,96932.16
2023-01-09T07:36:34.979Z,96933.41
2023-01-09T07:39:39.063Z,96926.53
2023-01-09T07:42:41.696Z,96919.22
2023-01-09T07:45:44.374Z,96923.53
2023-01-09T07:48:46.992Z,96922.25
2023-01-09T07:51:49.649Z,96925.47
2023-01-09T07:54:53.680Z,96932.16
2023-01-09T07:57:56.313Z,96933.28
2023-01-09T08:00:59.053Z,96944.47
2023-01-09T08:04:01.725Z,96952.13
2023-01-09T08:07:04.428Z,96952.09
2023-01-09T08:10:10.465Z,96963.88
2023-01-09T08:13:13.171Z,96972.84
2023-01-09T08:16:16.191Z,96973.28
2023-01-09T08:19:18.902Z,96979.72
2023-01-09T08:22:21.525Z,96971.41
2023-01-09T08:25:25.587Z,96966.72
2023-01-09T08:28:28.465Z,96971.25
2023-01-09T08:31:31.154Z,96966.94
2023-01-09T08:34:33.840Z,96963.84
2023-01-09T08:37:37.110Z,96974.22
2023-01-09T08:40:41.234Z,96976.03
2023-01-09T08:44:01.633Z,96979.97
2023-01-09T08:47:07.026Z,96987.97
2023-01-09T08:50:10.618Z,96974.56
2023-01-09T08:53:13.886Z,96976.31
2023-01-09T08:56:18.222Z,96969.91
2023-01-09T08:59:20.927Z,96989.91
2023-01-09T09:02:23.646Z,96980.16
2023-01-09T09:05:28.665Z,96986.56
2023-01-09T09:08:31.280Z,96990.91
2023-01-09T09:11:35.513Z,96992.19
2023-01-09T09:14:55.717Z,96992.72
2023-01-09T09:18:00.607Z,96995.47
2023-01-09T09:21:03.451Z,96990.50
2023-01-09T09:24:06.364Z,96989.47
2023-01-09T09:27:10.365Z,96982.69
2023-01-09T09:30:14.993Z,96989.84
2023-01-09T09:33:17.633Z,96985.59
2023-01-09T09:36:20.281Z,96986.13
2023-01-09T09:39:22.916Z,96991.94
2023-01-09T09:43:01.124Z,96987.13
2023-01-09T09:46:10.801Z,96988.72
2023-01-09T09:49:19.302Z,96992.09
2023-01-09T09:52:31.462Z,96992.81
2023-01-09T09:55:36.364Z,96997.03
2023-01-09T09:58:42.346Z,96999.41
2023-01-09T10:01:51.811Z,96998.94
2023-01-09T10:05:00.464Z,97011.50
2023-01-09T10:08:15.802Z,97010.47
2023-01-09T10:11:24.450Z,96992.66
2023-01-09T10:14:29.528Z,96991.00
2023-01-09T10:17:45.432Z,96983.72
2023-01-09T10:21:00.894Z,96982.06
2023-01-09T10:24:20.948Z,96981.75
2023-01-09T10:27:34.460Z,96985.13
2023-01-09T10:30:45.251Z,96965.09
2023-01-09T10:33:55.700Z,96961.16
2023-01-09T10:37:06.871Z,96953.13
2023-01-09T10:40:20.523Z,96953.94
2023-01-09T10:43:30.571Z,96950.25
2023-01-09T10:46:41.924Z,96957.78
2023-01-09T10:49:46.403Z,96956.63
2023-01-09T10:52:51.273Z,96949.31
2023-01-09T10:55:56.948Z,96946.88
2023-01-09T10:58:59.606Z,96937.72
2023-01-09T11:02:04.443Z,96947.94
2023-01-09T11:05:07.822Z,96941.97
2023-01-09T11:08:22.683Z,96943.19
2023-01-09T11:11:37.934Z,96944.38
2023-01-09T11:14:40.657Z,96943.88
2023-01-09T11:17:45.006Z,96939.22
2023-01-09T11:20:47.739Z,96932.75
2023-01-09T11:23:50.697Z,96936.53
2023-01-09T11:26:55.812Z,96934.16
2023-01-09T11:30:17.788Z,96926.66
2023-01-09T11:33:25.567Z,96938.56
2023-01-09T11:36:28.633Z,96931.59
2023-01-09T11:39:33.900Z,96921.66
2023-01-09T11:42:54.621Z,96917.97
2023-01-09T11:46:01.430Z,96932.75
2023-01-09T11:49:20.766Z,96904.81
2023-01-09T11:52:23.480Z,96903.19
2023-01-09T11:55:34.713Z,96914.88
2023-01-09T11:58:42.726Z,96905.16
2023-01-09T12:02:06.750Z,96904.56
2023-01-09T12:05:24.244Z,96912.16
2023-01-09T12:08:37.662Z,96908.78
2023-01-09T12:11:48.692Z,96915.88
2023-01-09T12:15:04.250Z,96902.59
2023-01-09T12:18:26.002Z,96913.13
2023-01-09T12:21:35.206Z,96914.97
2023-01-09T12:25:03.235Z,96922.91
2023-01-09T12:28:26.924Z,96920.91
2023-01-09T12:31:48.259Z,96934.34
2023-01-09T12:34:59.153Z,96930.06
2023-01-09T12:38:18.065Z,96942.38
2023-01-09T12:41:36.001Z,96938.91
2023-01-09T12:45:00.357Z,96944.94
2023-01-09T12:48:09.356Z,96945.84
2023-01-09T12:51:34.601Z,96941.75
2023-01-09T12:54:44.821Z,96943.97
2023-01-09T12:57:50.140Z,96939.88
2023-01-09T13:00:56.065Z,96940.09
2023-01-09T13:04:10.039Z,96946.44
2023-01-09T13:07:19.017Z,96949.72
2023-01-09T13:10:27.238Z,96958.53
2023-01-09T13:13:36.228Z,96950.50
2023-01-09T13:16:43.343Z,96957.25
2023-01-09T13:19:46.243Z,96952.69
2023-01-09T13:22:50.833Z,96953.66
2023-01-09T13:25:57.663Z,96953.56
2023-01-09T13:29:04.319Z,96951.38
2023-01-09T13:32:34.146Z,96966.09
2023-01-09T13:35:49.174Z,96950.69
2023-01-09T13:38:52.289Z,96963.75
2023-01-09T13:42:17.960Z,96951.84
2023-01-09T13:45:25.491Z,96966.69
2023-01-09T13:48:39.840Z,96976.28
2023-01-09T13:51:59.860Z,96973.03
2023-01-09T13:55:23.635Z,96991.50
2023-01-09T13:58:29.493Z,96993.47
2023-01-09T14:01:43.768Z,97009.41
2023-01-09T14:04:46.584Z,97007.19
2023-01-09T14:07:51.529Z,97002.91
2023-01-09T14:10:57.790Z,97013.66
2023-01-09T14:14:05.580Z,97016.59
2023-01-09T14:17:17.690Z,97018.84
2023-01-09T14:20:28.120Z,97013.94
2023-01-09T14:23:51.072Z,97022.13
2023-01-09T14:26:57.178Z,97021.25
2023-01-09T14:30:28.581Z,97023.84
2023-01-09T14:33:32.853Z,97035.63
2023-01-09T14:36:37.448Z,97037.94
2023-01-09T14:39:43.957Z,97043.72
2023-01-09T14:42:50.515Z,97047.66
2023-01-09T14:46:00.043Z,97057.94
2023-01-09T14:49:08.018Z,97063.50
2023-01-09T14:52:19.989Z,97067.00
2023-01-09T14:55:27.722Z,97079.44
2023-01-09T14:58:32.271Z,97075.31
2023-01-09T15:01:37.627Z,97077.84
2023-01-09T15:04:43.397Z,97083.94
2023-01-09T15:07:51.747Z,97088.59
2023-01-09T15:10:56.030Z,97098.28
2023-01-09T15:14:00.152Z,97102.88
2023-01-09T15:17:05.275Z,97107.34
2023-01-09T15:20:16.937Z,97133.97
2023-01-09T15:23:23.912Z,97125.41
2023-01-09T15:26:28.524Z,97140.63
2023-01-09T15:29:31.198Z,97144.75
2023-01-09T15:32:36.693Z,97148.25
2023-01-09T15:35:43.298Z,97149.59
2023-01-09T15:38:47.658Z,97159.25
2023-01-09T15:42:08.286Z,97174.59
2023-01-09T15:45:24.732Z,97183.50
2023-01-09T15:48:32.301Z,97186.66
2023-01-09T15:51:35.056Z,97192.91
2023-01-09T15:54:38.578Z,97191.97
2023-01-09T15:57:51.728Z,97171.56
2023-01-09T16:00:57.511Z,97166.00
2023-01-09T16:04:08.441Z,97158.56
2023-01-09T16:07:16.277Z,97170.78
2023-01-09T16:10:24.687Z,97194.25
2023-01-09T16:13:29.618Z,97200.63
2023-01-09T16:16:35.111Z,97197.72
2023-01-09T16:19:49.122Z,97211.56
2023-01-09T16:22:53.964Z,97215.53
2023-01-09T16:26:07.361Z,97213.66
2023-01-09T16:29:35.484Z,97217.41
2023-01-09T16:32:51.333Z,97216.38
2023-01-09T16:35:55.879Z,97230.25
2023-01-09T16:39:00.796Z,97249.44
2023-01-09T16:42:26.445Z,97255.56
2023-01-09T16:45:32.160Z,97251.03
2023-01-09T16:48:35.024Z,97248.06
2023-01-09T16:51:39.128Z,97263.00
2023-01-09T16:54:43.509Z,97268.88
2023-01-09T16:57:46.489Z,97276.34
2023-01-09T17:00:49.155Z,97275.25
2023-01-09T17:03:52.546Z,97273.66
2023-01-09T17:06:56.581Z,97279.25
2023-01-09T17:09:59.316Z,97280.00
2023-01-09T17:13:02.016Z,97276.53
2023-01-09T17:16:05.687Z,97274.94
2023-01-09T17:19:13.984Z,97271.94
2023-01-09T17:22:18.335Z,97278.66
2023-01-09T17:25:38.339Z,97279.19
2023-01-09T17:28:44.647Z,97279.41
2023-01-09T17:31:47.364Z,97280.47
2023-01-09T17:34:50.077Z,97271.66
2023-01-09T17:37:54.071Z,97281.78
2023-01-09T17:40:56.724Z,97285.00
2023-01-09T17:44:00.536Z,97295.13
2023-01-09T17:47:03.175Z,97297.50
2023-01-09T17:50:07.395Z,97301.53
2023-01-09T17:53:11.601Z,97315.09
2023-01-09T17:56:18.370Z,97314.84
2023-01-09T17:59:21.060Z,97313.03
2023-01-09T18:02:23.921Z,97323.13
2023-01-09T18:05:27.617Z,97329.50
2023-01-09T18:08:31.743Z,97335.66
2023-01-09T18:11:35.275Z,97343.13
2023-01-09T18:14:39.036Z,97346.03
2023-01-09T18:17:41.856Z,97354.31
2023-01-09T18:20:45.544Z,97373.75
2023-01-09T18:23:50.223Z,97368.97
2023-01-09T18:26:53.532Z,97388.94
2023-01-09T18:29:56.824Z,97387.66
2023-01-09T18:33:00.013Z,97395.38
2023-01-09T18:36:07.104Z,97409.00
2023-01-09T18:39:12.810Z,97417.53
2023-01-09T18:42:15.879Z,97431.63
2023-01-09T18:45:18.770Z,97434.84
2023-01-09T18:48:21.498Z,97450.56
2023-01-09T18:51:26.011Z,97449.78
2023-01-09T18:54:30.010Z,97452.19
2023-01-09T18:57:32.801Z,97462.31
2023-01-09T19:00:36.619Z,97456.44
2023-01-09T19:03:39.322Z,97460.97
2023-01-09T19:06:42.042Z,97471.38
2023-01-09T19:09:46.473Z,97480.97
2023-01-09T19:12:49.155Z,97481.78
2023-01-09T19:15:54.849Z,97487.66
2023-01-09T19:18:58.208Z,97490.03
2023-01-09T19:22:00.853Z,97498.28
2023-01-09T19:25:05.368Z,97501.22
2023-01-09T19:28:08.186Z,97513.22
2023-01-09T19:31:11.006Z,97509.47
2023-01-09T19:34:14.464Z,97522.81
2023-01-09T19:37:18.312Z,97520.94
2023-01-09T19:40:22.442Z,97526.53
2023-01-09T19:43:28.263Z,97525.44
2023-01-09T19:46:33.460Z,97525.44
2023-01-09T19:49:36.180Z,97529.69
2023-01-09T19:52:38.923Z,97541.69
2023-01-09T19:55:42.930Z,97540.34
2023-01-09T19:58:51.000Z,97538.75
2023-01-09T20:01:55.160Z,97544.34
2023-01-09T20:04:57.890Z,97543.53
2023-01-09T20:08:00.554Z,97557.13
2023-01-09T20:11:07.320Z,97553.41
2023-01-09T20:14:12.458Z,97560.88
2023-01-09T20:17:16.529Z,97566.19
2023-01-09T20:23:22.440Z,97568.63
2023-01-09T20:26:27.604Z,97576.59
2023-01-09T20:29:30.559Z,97593.38
2023-01-09T20:32:33.775Z,97593.63
2023-01-09T20:35:36.697Z,97593.09
2023-01-09T20:38:40.561Z,97602.66
2023-01-09T20:41:45.233Z,97601.09
2023-01-09T20:44:48.406Z,97613.59
2023-01-09T20:47:51.507Z,97613.31
2023-01-09T20:50:54.143Z,97608.50
2023-01-09T20:53:58.239Z,97614.91
2023-01-09T20:57:02.285Z,97611.94
2023-01-09T21:00:05.849Z,97614.91
2023-01-09T21:03:08.497Z,97610.34
2023-01-09T21:06:12.979Z,97616.47
2023-01-09T21:09:15.657Z,97627.41
2023-01-09T21:12:35.594Z,97628.69
2023-01-09T21:15:38.990Z,97628.97
2023-01-09T21:18:43.253Z,97630.34
2023-01-09T21:21:45.927Z,97628.44
2023-01-09T21:24:49.912Z,97639.38
2023-01-09T21:27:54.264Z,97637.47
2023-01-09T21:30:56.953Z,97642.78
2023-01-09T21:33:59.692Z,97650.78
2023-01-09T21:37:02.445Z,97647.63
2023-01-09T21:40:08.553Z,97665.44
2023-01-09T21:43:42.971Z,97666.53
2023-01-09T21:46:56.052Z,97672.41
2023-01-09T21:49:58.898Z,97662.56
2023-01-09T21:53:01.543Z,97666.84
2023-01-09T21:56:04.656Z,97677.25
2023-01-09T21:59:08.825Z,97670.34
2023-01-09T22:02:13.028Z,97685.25
2023-01-09T22:05:15.838Z,97688.72
2023-01-09T22:08:18.546Z,97686.28
2023-01-09T22:11:21.228Z,97697.72
2023-01-09T22:14:25.373Z,97703.84
2023-01-09T22:17:29.182Z,97712.91
2023-01-09T22:20:31.823Z,97710.03
2023-01-09T22:23:34.538Z,97724.44
2023-01-09T22:26:37.204Z,97736.94
2023-01-09T22:29:41.302Z,97741.47
2023-01-09T22:32:43.887Z,97751.91
2023-01-09T22:35:46.521Z,97762.84
2023-01-09T22:38:49.116Z,97761.50
2023-01-09T22:41:55.001Z,97770.81
2023-01-09T22:44:58.975Z,97773.47
2023-01-09T22:48:01.617Z,97783.34
2023-01-09T22:51:06.114Z,97790.00
2023-01-09T22:54:08.788Z,97798.56
2023-01-09T22:57:11.469Z,97805.00
2023-01-09T23:00:16.467Z,97801.00
2023-01-09T23:03:19.176Z,97802.31
2023-01-09T23:06:23.091Z,97817.22
2023-01-09T23:09:26.552Z,97822.25
2023-01-09T23:12:29.229Z,97834.22
2023-01-09T23:15:33.367Z,97831.56
2023-01-09T23:18:36.103Z,97832.13
2023-01-09T23:21:38.729Z,97827.31
2023-01-09T23:24:41.411Z,97829.91
2023-01-09T23:27:44.101Z,97824.38
2023-01-09T23:30:48.960Z,97830.91
2023-01-09T23:33:51.677Z,97837.88
2023-01-09T23:36:57.429Z,97848.75
2023-01-09T23:40:00.247Z,97844.81
2023-01-09T23:43:11.760Z,97854.63
2023-01-09T23:46:15.812Z,97856.56
2023-01-09T23:49:18.676Z,97853.91
2023-01-09T23:52:21.359Z,97856.28
2023-01-09T23:55:24.036Z,97859.78
2023-01-09T23:58:27.374Z,97867.28
